sensor_id;sensor_type;location;lat;lon;timestamp;pressure;altitude;pressure_sealevel;temperature;humidity
82171;BME280;71755;48.038;14.346;2023-08-21T00:00:18;97896.81;;;20.33;71.59
82171;BME280;71755;48.038;14.346;2023-08-21T00:02:44;97898.31;;;20.39;71.44
82171;BME280;71755;48.038;14.346;2023-08-21T00:05:10;97896.06;;;20.46;70.67
82171;BME280;71755;48.038;14.346;2023-08-21T00:07:36;97889.75;;;20.51;70.86
82171;BME280;71755;48.038;14.346;2023-08-21T00:10:02;97883.81;;;20.49;71.19
82171;BME280;71755;48.038;14.346;2023-08-21T00:12:28;97884.53;;;20.54;70.86
82171;BME280;71755;48.038;14.346;2023-08-21T00:14:54;97888.44;;;20.62;69.95
82171;BME280;71755;48.038;14.346;2023-08-21T00:17:20;97883.91;;;20.71;69.30
82171;BME280;71755;48.038;14.346;2023-08-21T00:19:46;97882.81;;;20.72;69.71
82171;BME280;71755;48.038;14.346;2023-08-21T00:22:11;97889.22;;;20.76;69.70
82171;BME280;71755;48.038;14.346;2023-08-21T00:24:37;97889.63;;;20.70;69.49
82171;BME280;71755;48.038;14.346;2023-08-21T00:27:04;97892.06;;;20.57;69.83
82171;BME280;71755;48.038;14.346;2023-08-21T00:29:29;97886.72;;;20.52;69.54
82171;BME280;71755;48.038;14.346;2023-08-21T00:31:55;97888.59;;;20.06;71.04
82171;BME280;71755;48.038;14.346;2023-08-21T00:34:21;97886.84;;;19.82;71.99
82171;BME280;71755;48.038;14.346;2023-08-21T00:36:46;97891.69;;;19.85;71.87
82171;BME280;71755;48.038;14.346;2023-08-21T00:39:12;97891.06;;;20.07;71.10
82171;BME280;71755;48.038;14.346;2023-08-21T00:41:38;97881.63;;;20.18;70.86
82171;BME280;71755;48.038;14.346;2023-08-21T00:44:04;97886.56;;;20.16;70.82
82171;BME280;71755;48.038;14.346;2023-08-21T00:46:31;97884.13;;;20.15;71.10
82171;BME280;71755;48.038;14.346;2023-08-21T00:48:57;97878.00;;;20.23;70.93
82171;BME280;71755;48.038;14.346;2023-08-21T00:51:24;97893.00;;;20.34;70.50
82171;BME280;71755;48.038;14.346;2023-08-21T00:53:50;97888.47;;;20.29;70.25
82171;BME280;71755;48.038;14.346;2023-08-21T00:56:16;97885.97;;;20.33;69.88
82171;BME280;71755;48.038;14.346;2023-08-21T00:58:43;97895.09;;;20.37;69.73
82171;BME280;71755;48.038;14.346;2023-08-21T01:01:09;97890.78;;;20.36;69.83
82171;BME280;71755;48.038;14.346;2023-08-21T01:03:36;97894.91;;;20.34;70.47
82171;BME280;71755;48.038;14.346;2023-08-21T01:06:02;97895.41;;;20.36;70.58
82171;BME280;71755;48.038;14.346;2023-08-21T01:11:31;97899.19;;;19.75;72.54
82171;BME280;71755;48.038;14.346;2023-08-21T01:16:53;97902.78;;;20.03;71.48
82171;BME280;71755;48.038;14.346;2023-08-21T01:19:42;97902.34;;;19.95;71.71
82171;BME280;71755;48.038;14.346;2023-08-21T01:22:09;97897.91;;;19.86;72.02
82171;BME280;71755;48.038;14.346;2023-08-21T01:24:35;97907.31;;;19.75;71.87
82171;BME280;71755;48.038;14.346;2023-08-21T01:27:01;97910.91;;;19.70;72.78
82171;BME280;71755;48.038;14.346;2023-08-21T01:29:27;97908.19;;;19.70;72.61
82171;BME280;71755;48.038;14.346;2023-08-21T01:32:23;97906.41;;;19.79;72.01
82171;BME280;71755;48.038;14.346;2023-08-21T01:34:55;97911.84;;;19.79;71.40
82171;BME280;71755;48.038;14.346;2023-08-21T01:37:24;97910.16;;;19.83;71.74
82171;BME280;71755;48.038;14.346;2023-08-21T01:39:50;97908.56;;;19.96;71.42
82171;BME280;71755;48.038;14.346;2023-08-21T01:42:17;97911.53;;;19.81;71.50
82171;BME280;71755;48.038;14.346;2023-08-21T01:44:43;97912.72;;;19.75;71.52
82171;BME280;71755;48.038;14.346;2023-08-21T01:47:12;97912.13;;;19.59;72.08
82171;BME280;71755;48.038;14.346;2023-08-21T01:49:38;97910.75;;;19.61;72.38
82171;BME280;71755;48.038;14.346;2023-08-21T01:52:04;97918.97;;;19.75;71.82
82171;BME280;71755;48.038;14.346;2023-08-21T01:54:30;97915.78;;;19.68;72.00
82171;BME280;71755;48.038;14.346;2023-08-21T01:56:56;97915.16;;;19.57;72.61
82171;BME280;71755;48.038;14.346;2023-08-21T01:59:23;97915.28;;;19.66;71.97
82171;BME280;71755;48.038;14.346;2023-08-21T02:01:50;97920.63;;;19.52;72.39
82171;BME280;71755;48.038;14.346;2023-08-21T02:04:16;97927.28;;;19.41;72.76
82171;BME280;71755;48.038;14.346;2023-08-21T02:06:42;97920.59;;;19.15;73.59
82171;BME280;71755;48.038;14.346;2023-08-21T02:09:10;97921.31;;;19.01;74.33
82171;BME280;71755;48.038;14.346;2023-08-21T02:11:36;97914.84;;;18.97;74.54
82171;BME280;71755;48.038;14.346;2023-08-21T02:14:03;97916.47;;;18.98;74.65
82171;BME280;71755;48.038;14.346;2023-08-21T02:16:30;97914.50;;;19.04;74.27
82171;BME280;71755;48.038;14.346;2023-08-21T02:18:56;97922.19;;;18.73;75.57
82171;BME280;71755;48.038;14.346;2023-08-21T02:21:23;97924.38;;;18.71;76.03
82171;BME280;71755;48.038;14.346;2023-08-21T02:23:49;97922.06;;;18.54;76.60
82171;BME280;71755;48.038;14.346;2023-08-21T02:26:15;97922.75;;;18.41;76.67
82171;BME280;71755;48.038;14.346;2023-08-21T02:28:42;97922.94;;;18.21;77.64
82171;BME280;71755;48.038;14.346;2023-08-21T02:31:13;97921.00;;;18.26;77.36
82171;BME280;71755;48.038;14.346;2023-08-21T02:33:39;97910.19;;;18.26;77.77
82171;BME280;71755;48.038;14.346;2023-08-21T02:36:05;97910.09;;;18.36;76.81
82171;BME280;71755;48.038;14.346;2023-08-21T02:38:32;97908.72;;;18.39;77.12
82171;BME280;71755;48.038;14.346;2023-08-21T02:40:58;97913.25;;;18.43;76.50
82171;BME280;71755;48.038;14.346;2023-08-21T02:43:24;97914.63;;;18.41;76.42
82171;BME280;71755;48.038;14.346;2023-08-21T02:45:50;97916.75;;;18.44;76.31
82171;BME280;71755;48.038;14.346;2023-08-21T02:48:16;97919.81;;;18.37;76.68
82171;BME280;71755;48.038;14.346;2023-08-21T02:50:43;97909.16;;;18.46;76.05
82171;BME280;71755;48.038;14.346;2023-08-21T02:53:10;97911.47;;;18.34;76.55
82171;BME280;71755;48.038;14.346;2023-08-21T02:55:36;97910.47;;;18.25;77.03
82171;BME280;71755;48.038;14.346;2023-08-21T02:58:02;97914.28;;;18.19;76.82
82171;BME280;71755;48.038;14.346;2023-08-21T03:00:29;97914.81;;;18.21;76.87
82171;BME280;71755;48.038;14.346;2023-08-21T03:02:55;97909.69;;;18.19;76.81
82171;BME280;71755;48.038;14.346;2023-08-21T03:05:22;97905.66;;;18.17;77.17
82171;BME280;71755;48.038;14.346;2023-08-21T03:07:49;97905.66;;;18.22;77.12
82171;BME280;71755;48.038;14.346;2023-08-21T03:10:15;97899.69;;;18.20;77.34
82171;BME280;71755;48.038;14.346;2023-08-21T03:12:41;97907.78;;;18.20;76.88
82171;BME280;71755;48.038;14.346;2023-08-21T03:15:08;97899.66;;;18.25;76.73
82171;BME280;71755;48.038;14.346;2023-08-21T03:17:34;97905.16;;;18.15;77.12
82171;BME280;71755;48.038;14.346;2023-08-21T03:20:01;97907.09;;;18.09;76.76
82171;BME280;71755;48.038;14.346;2023-08-21T03:22:30;97906.16;;;17.95;77.65
82171;BME280;71755;48.038;14.346;2023-08-21T03:24:58;97904.44;;;17.70;78.69
82171;BME280;71755;48.038;14.346;2023-08-21T03:27:24;97907.75;;;17.57;79.37
82171;BME280;71755;48.038;14.346;2023-08-21T03:29:50;97909.44;;;17.42;79.90
82171;BME280;71755;48.038;14.346;2023-08-21T03:32:17;97908.97;;;17.35;79.98
82171;BME280;71755;48.038;14.346;2023-08-21T03:34:43;97910.56;;;17.36;79.86
82171;BME280;71755;48.038;14.346;2023-08-21T03:37:10;97904.16;;;17.27;80.67
82171;BME280;71755;48.038;14.346;2023-08-21T03:39:36;97901.69;;;17.31;80.21
82171;BME280;71755;48.038;14.346;2023-08-21T03:42:03;97901.97;;;17.29;80.46
82171;BME280;71755;48.038;14.346;2023-08-21T03:44:29;97904.09;;;17.37;80.02
82171;BME280;71755;48.038;14.346;2023-08-21T03:46:55;97907.81;;;17.46;79.75
82171;BME280;71755;48.038;14.346;2023-08-21T03:49:21;97899.59;;;17.67;78.83
82171;BME280;71755;48.038;14.346;2023-08-21T03:51:46;97903.53;;;17.85;77.85
82171;BME280;71755;48.038;14.346;2023-08-21T03:54:13;97906.47;;;17.88;78.26
82171;BME280;71755;48.038;14.346;2023-08-21T03:56:38;97909.00;;;18.08;77.07
82171;BME280;71755;48.038;14.346;2023-08-21T03:59:04;97915.91;;;18.20;76.54
82171;BME280;71755;48.038;14.346;2023-08-21T04:01:30;97920.19;;;18.26;76.40
82171;BME280;71755;48.038;14.346;2023-08-21T04:03:56;97920.19;;;18.26;76.02
82171;BME280;71755;48.038;14.346;2023-08-21T04:06:22;97918.91;;;17.89;76.61
82171;BME280;71755;48.038;14.346;2023-08-21T04:08:48;97922.56;;;17.64;77.90
82171;BME280;71755;48.038;14.346;2023-08-21T04:11:13;97921.91;;;17.83;77.48
82171;BME280;71755;48.038;14.346;2023-08-21T04:13:40;97924.63;;;17.77;76.92
82171;BME280;71755;48.038;14.346;2023-08-21T04:16:05;97924.25;;;17.94;76.12
82171;BME280;71755;48.038;14.346;2023-08-21T04:18:31;97924.22;;;17.99;76.26
82171;BME280;71755;48.038;14.346;2023-08-21T04:20:58;97927.97;;;18.03;76.16
82171;BME280;71755;48.038;14.346;2023-08-21T04:23:24;97926.06;;;18.04;76.99
82171;BME280;71755;48.038;14.346;2023-08-21T04:25:50;97915.19;;;18.09;76.50
82171;BME280;71755;48.038;14.346;2023-08-21T04:28:16;97926.78;;;18.15;76.21
82171;BME280;71755;48.038;14.346;2023-08-21T04:30:41;97924.53;;;18.27;75.74
82171;BME280;71755;48.038;14.346;2023-08-21T04:33:08;97929.34;;;18.30;76.72
82171;BME280;71755;48.038;14.346;2023-08-21T04:35:39;97932.53;;;18.37;77.24
82171;BME280;71755;48.038;14.346;2023-08-21T04:38:06;97934.59;;;18.45;76.01
82171;BME280;71755;48.038;14.346;2023-08-21T04:40:33;97933.00;;;18.44;75.64
82171;BME280;71755;48.038;14.346;2023-08-21T04:42:58;97931.25;;;18.29;76.49
82171;BME280;71755;48.038;14.346;2023-08-21T04:45:24;97932.75;;;18.11;76.14
82171;BME280;71755;48.038;14.346;2023-08-21T04:47:51;97925.63;;;18.21;75.83
82171;BME280;71755;48.038;14.346;2023-08-21T04:50:17;97931.03;;;18.26;76.14
82171;BME280;71755;48.038;14.346;2023-08-21T04:52:43;97934.72;;;18.35;75.61
82171;BME280;71755;48.038;14.346;2023-08-21T04:55:09;97928.69;;;18.43;76.62
82171;BME280;71755;48.038;14.346;2023-08-21T04:57:35;97931.56;;;18.52;76.54
82171;BME280;71755;48.038;14.346;2023-08-21T05:00:01;97936.22;;;18.46;76.32
82171;BME280;71755;48.038;14.346;2023-08-21T05:02:28;97942.16;;;18.48;75.54
82171;BME280;71755;48.038;14.346;2023-08-21T05:04:55;97947.19;;;18.31;76.01
82171;BME280;71755;48.038;14.346;2023-08-21T05:07:21;97942.03;;;18.00;77.42
82171;BME280;71755;48.038;14.346;2023-08-21T05:09:47;97939.44;;;17.90;77.85
82171;BME280;71755;48.038;14.346;2023-08-21T05:12:13;97943.69;;;17.96;77.76
82171;BME280;71755;48.038;14.346;2023-08-21T05:14:39;97947.00;;;17.88;77.80
82171;BME280;71755;48.038;14.346;2023-08-21T05:17:05;97950.84;;;17.77;78.15
82171;BME280;71755;48.038;14.346;2023-08-21T05:19:31;97937.53;;;17.91;78.20
82171;BME280;71755;48.038;14.346;2023-08-21T05:21:57;97936.25;;;18.12;77.13
82171;BME280;71755;48.038;14.346;2023-08-21T05:24:22;97935.63;;;18.25;76.84
82171;BME280;71755;48.038;14.346;2023-08-21T05:26:49;97944.38;;;18.41;77.34
82171;BME280;71755;48.038;14.346;2023-08-21T05:29:15;97942.97;;;18.49;77.26
82171;BME280;71755;48.038;14.346;2023-08-21T05:31:41;97946.28;;;18.40;76.62
82171;BME280;71755;48.038;14.346;2023-08-21T05:34:08;97944.28;;;18.51;76.07
82171;BME280;71755;48.038;14.346;2023-08-21T05:36:34;97946.59;;;18.68;75.55
82171;BME280;71755;48.038;14.346;2023-08-21T05:39:02;97954.38;;;18.74;75.75
82171;BME280;71755;48.038;14.346;2023-08-21T05:41:32;97956.56;;;18.72;75.17
82171;BME280;71755;48.038;14.346;2023-08-21T05:43:59;97953.97;;;18.62;76.10
82171;BME280;71755;48.038;14.346;2023-08-21T05:46:25;97952.28;;;18.66;76.12
82171;BME280;71755;48.038;14.346;2023-08-21T05:48:52;97945.78;;;18.67;77.02
82171;BME280;71755;48.038;14.346;2023-08-21T05:51:17;97950.69;;;18.65;76.79
82171;BME280;71755;48.038;14.346;2023-08-21T05:53:43;97947.16;;;18.65;76.24
82171;BME280;71755;48.038;14.346;2023-08-21T05:56:09;97945.94;;;18.76;76.59
82171;BME280;71755;48.038;14.346;2023-08-21T05:58:35;97947.22;;;18.84;76.59
82171;BME280;71755;48.038;14.346;2023-08-21T06:01:01;97950.34;;;18.96;77.19
82171;BME280;71755;48.038;14.346;2023-08-21T06:03:27;97945.44;;;18.98;75.58
82171;BME280;71755;48.038;14.346;2023-08-21T06:05:53;97948.09;;;19.03;75.54
82171;BME280;71755;48.038;14.346;2023-08-21T06:08:20;97945.84;;;19.10;75.05
82171;BME280;71755;48.038;14.346;2023-08-21T06:10:51;97947.31;;;19.21;75.24
82171;BME280;71755;48.038;14.346;2023-08-21T06:13:17;97938.19;;;19.36;75.53
82171;BME280;71755;48.038;14.346;2023-08-21T06:15:44;97944.28;;;19.47;74.45
82171;BME280;71755;48.038;14.346;2023-08-21T06:18:11;97949.06;;;19.55;74.55
82171;BME280;71755;48.038;14.346;2023-08-21T06:20:37;97950.50;;;19.66;74.45
82171;BME280;71755;48.038;14.346;2023-08-21T06:23:03;97943.56;;;19.79;74.19
82171;BME280;71755;48.038;14.346;2023-08-21T06:25:29;97939.88;;;19.88;74.12
82171;BME280;71755;48.038;14.346;2023-08-21T06:27:56;97948.75;;;19.94;73.91
82171;BME280;71755;48.038;14.346;2023-08-21T06:30:22;97948.94;;;19.97;74.26
82171;BME280;71755;48.038;14.346;2023-08-21T06:32:49;97938.03;;;20.03;72.28
82171;BME280;71755;48.038;14.346;2023-08-21T06:35:15;97936.78;;;20.14;71.01
82171;BME280;71755;48.038;14.346;2023-08-21T06:37:43;97937.19;;;20.21;71.46
82171;BME280;71755;48.038;14.346;2023-08-21T06:40:09;97943.25;;;20.32;70.04
82171;BME280;71755;48.038;14.346;2023-08-21T06:42:37;97939.00;;;20.44;70.30
82171;BME280;71755;48.038;14.346;2023-08-21T06:45:06;97936.81;;;20.60;70.39
82171;BME280;71755;48.038;14.346;2023-08-21T06:47:33;97936.31;;;20.72;69.54
82171;BME280;71755;48.038;14.346;2023-08-21T06:49:59;97930.91;;;20.85;70.88
82171;BME280;71755;48.038;14.346;2023-08-21T06:52:26;97930.28;;;20.88;67.68
82171;BME280;71755;48.038;14.346;2023-08-21T06:54:52;97936.31;;;20.99;67.49
82171;BME280;71755;48.038;14.346;2023-08-21T06:57:18;97931.78;;;21.08;66.48
82171;BME280;71755;48.038;14.346;2023-08-21T06:59:44;97928.84;;;21.18;66.21
82171;BME280;71755;48.038;14.346;2023-08-21T07:02:11;97926.94;;;21.33;65.18
82171;BME280;71755;48.038;14.346;2023-08-21T07:04:38;97922.78;;;21.49;65.67
82171;BME280;71755;48.038;14.346;2023-08-21T07:07:04;97928.00;;;21.59;66.64
82171;BME280;71755;48.038;14.346;2023-08-21T07:09:30;97934.69;;;21.75;66.52
82171;BME280;71755;48.038;14.346;2023-08-21T07:11:56;97931.28;;;21.92;65.08
82171;BME280;71755;48.038;14.346;2023-08-21T07:14:22;97932.31;;;21.96;64.65
82171;BME280;71755;48.038;14.346;2023-08-21T07:16:48;97919.47;;;22.10;65.09
82171;BME280;71755;48.038;14.346;2023-08-21T07:19:14;97927.19;;;22.17;65.27
82171;BME280;71755;48.038;14.346;2023-08-21T07:21:40;97925.31;;;22.26;68.21
82171;BME280;71755;48.038;14.346;2023-08-21T07:24:06;97929.88;;;22.39;66.96
82171;BME280;71755;48.038;14.346;2023-08-21T07:26:32;97920.03;;;22.61;66.26
82171;BME280;71755;48.038;14.346;2023-08-21T07:28:58;97915.31;;;22.75;66.25
82171;BME280;71755;48.038;14.346;2023-08-21T07:31:24;97918.91;;;22.84;65.17
82171;BME280;71755;48.038;14.346;2023-08-21T07:33:51;97923.56;;;22.84;64.84
82171;BME280;71755;48.038;14.346;2023-08-21T07:36:17;97918.94;;;22.93;65.40
82171;BME280;71755;48.038;14.346;2023-08-21T07:38:44;97919.75;;;23.02;64.06
82171;BME280;71755;48.038;14.346;2023-08-21T07:41:12;97915.66;;;23.22;65.16
82171;BME280;71755;48.038;14.346;2023-08-21T07:43:41;97921.59;;;23.41;64.15
82171;BME280;71755;48.038;14.346;2023-08-21T07:46:09;97922.59;;;23.54;64.20
82171;BME280;71755;48.038;14.346;2023-08-21T07:48:39;97917.47;;;23.52;63.36
82171;BME280;71755;48.038;14.346;2023-08-21T07:51:05;97908.97;;;23.71;63.54
82171;BME280;71755;48.038;14.346;2023-08-21T07:53:31;97918.78;;;23.81;63.12
82171;BME280;71755;48.038;14.346;2023-08-21T07:55:58;97913.16;;;23.94;62.79
82171;BME280;71755;48.038;14.346;2023-08-21T07:58:24;97912.50;;;23.97;62.47
82171;BME280;71755;48.038;14.346;2023-08-21T08:00:50;97916.81;;;24.24;63.25
82171;BME280;71755;48.038;14.346;2023-08-21T08:03:17;97918.09;;;24.36;62.35
82171;BME280;71755;48.038;14.346;2023-08-21T08:05:43;97913.75;;;24.35;62.04
82171;BME280;71755;48.038;14.346;2023-08-21T08:08:09;97910.50;;;24.41;62.48
82171;BME280;71755;48.038;14.346;2023-08-21T08:10:40;97915.94;;;24.58;61.36
82171;BME280;71755;48.038;14.346;2023-08-21T08:13:07;97905.81;;;24.59;60.59
82171;BME280;71755;48.038;14.346;2023-08-21T08:15:33;97914.41;;;24.78;61.30
82171;BME280;71755;48.038;14.346;2023-08-21T08:18:04;97907.09;;;25.00;60.73
82171;BME280;71755;48.038;14.346;2023-08-21T08:20:32;97912.59;;;25.20;60.25
82171;BME280;71755;48.038;14.346;2023-08-21T08:22:58;97916.81;;;25.18;60.01
82171;BME280;71755;48.038;14.346;2023-08-21T08:25:24;97911.13;;;25.23;57.86
82171;BME280;71755;48.038;14.346;2023-08-21T08:27:51;97904.84;;;25.31;58.48
82171;BME280;71755;48.038;14.346;2023-08-21T08:30:18;97910.31;;;25.31;57.53
82171;BME280;71755;48.038;14.346;2023-08-21T08:32:44;97906.97;;;25.46;58.11
82171;BME280;71755;48.038;14.346;2023-08-21T08:35:12;97910.63;;;25.50;58.83
82171;BME280;71755;48.038;14.346;2023-08-21T08:37:41;97913.44;;;25.63;57.08
82171;BME280;71755;48.038;14.346;2023-08-21T08:40:08;97904.47;;;25.83;57.32
82171;BME280;71755;48.038;14.346;2023-08-21T08:42:35;97899.25;;;25.90;56.04
82171;BME280;71755;48.038;14.346;2023-08-21T08:45:03;97902.41;;;26.13;56.46
82171;BME280;71755;48.038;14.346;2023-08-21T08:47:33;97904.44;;;26.37;57.38
82171;BME280;71755;48.038;14.346;2023-08-21T08:50:05;97897.63;;;26.67;57.26
82171;BME280;71755;48.038;14.346;2023-08-21T08:52:39;97895.34;;;26.69;56.77
82171;BME280;71755;48.038;14.346;2023-08-21T08:55:06;97896.38;;;26.65;58.55
82171;BME280;71755;48.038;14.346;2023-08-21T08:57:33;97907.94;;;26.83;55.48
82171;BME280;71755;48.038;14.346;2023-08-21T09:00:00;97893.09;;;26.96;57.06
82171;BME280;71755;48.038;14.346;2023-08-21T09:02:27;97886.47;;;27.21;54.70
82171;BME280;71755;48.038;14.346;2023-08-21T09:04:53;97898.13;;;27.18;56.50
82171;BME280;71755;48.038;14.346;2023-08-21T09:07:20;97887.84;;;27.03;55.18
82171;BME280;71755;48.038;14.346;2023-08-21T09:09:48;97893.00;;;27.17;55.71
82171;BME280;71755;48.038;14.346;2023-08-21T09:12:17;97886.31;;;27.42;53.68
82171;BME280;71755;48.038;14.346;2023-08-21T09:14:45;97894.63;;;27.58;53.37
82171;BME280;71755;48.038;14.346;2023-08-21T09:17:12;97893.41;;;27.83;50.73
82171;BME280;71755;48.038;14.346;2023-08-21T09:19:38;97887.19;;;27.98;50.67
82171;BME280;71755;48.038;14.346;2023-08-21T09:22:12;97879.22;;;27.93;53.21
82171;BME280;71755;48.038;14.346;2023-08-21T09:24:39;97878.50;;;27.96;50.93
82171;BME280;71755;48.038;14.346;2023-08-21T09:27:13;97889.31;;;27.89;51.47
82171;BME280;71755;48.038;14.346;2023-08-21T09:29:41;97881.00;;;28.29;51.85
82171;BME280;71755;48.038;14.346;2023-08-21T09:32:08;97878.09;;;28.38;51.08
82171;BME280;71755;48.038;14.346;2023-08-21T09:34:35;97877.44;;;28.60;50.12
82171;BME280;71755;48.038;14.346;2023-08-21T09:37:05;97882.88;;;28.41;50.61
82171;BME280;71755;48.038;14.346;2023-08-21T09:39:33;97875.97;;;28.79;50.08
82171;BME280;71755;48.038;14.346;2023-08-21T09:41:59;97879.25;;;28.69;50.13
82171;BME280;71755;48.038;14.346;2023-08-21T09:44:27;97872.06;;;28.80;50.59
82171;BME280;71755;48.038;14.346;2023-08-21T09:46:53;97870.28;;;29.03;49.77
82171;BME280;71755;48.038;14.346;2023-08-21T09:49:20;97867.41;;;29.15;50.19
82171;BME280;71755;48.038;14.346;2023-08-21T09:51:47;97864.53;;;29.27;49.63
82171;BME280;71755;48.038;14.346;2023-08-21T09:54:13;97868.88;;;29.29;50.32
82171;BME280;71755;48.038;14.346;2023-08-21T09:56:41;97869.13;;;29.39;49.45
82171;BME280;71755;48.038;14.346;2023-08-21T09:59:07;97864.97;;;29.65;49.13
82171;BME280;71755;48.038;14.346;2023-08-21T10:01:36;97874.16;;;29.72;46.91
82171;BME280;71755;48.038;14.346;2023-08-21T10:04:05;97861.41;;;29.64;50.83
82171;BME280;71755;48.038;14.346;2023-08-21T10:06:32;97864.19;;;29.83;49.22
82171;BME280;71755;48.038;14.346;2023-08-21T10:08:58;97853.91;;;29.80;47.85
82171;BME280;71755;48.038;14.346;2023-08-21T10:11:24;97853.44;;;30.17;48.58
82171;BME280;71755;48.038;14.346;2023-08-21T10:13:51;97866.78;;;30.38;47.07
82171;BME280;71755;48.038;14.346;2023-08-21T10:16:18;97861.16;;;30.31;46.73
82171;BME280;71755;48.038;14.346;2023-08-21T10:18:47;97861.56;;;30.10;48.44
82171;BME280;71755;48.038;14.346;2023-08-21T10:21:23;97856.88;;;30.33;47.58
82171;BME280;71755;48.038;14.346;2023-08-21T10:23:54;97851.00;;;30.35;47.10
82171;BME280;71755;48.038;14.346;2023-08-21T10:26:22;97862.28;;;30.49;46.16
82171;BME280;71755;48.038;14.346;2023-08-21T10:29:02;97852.22;;;30.83;45.46
82171;BME280;71755;48.038;14.346;2023-08-21T10:31:40;97854.69;;;30.65;43.55
82171;BME280;71755;48.038;14.346;2023-08-21T10:34:10;97851.78;;;30.81;44.20
82171;BME280;71755;48.038;14.346;2023-08-21T10:39:13;97855.34;;;30.82;45.97
82171;BME280;71755;48.038;14.346;2023-08-21T10:41:40;97848.19;;;31.03;47.43
82171;BME280;71755;48.038;14.346;2023-08-21T10:44:07;97848.78;;;30.90;44.02
82171;BME280;71755;48.038;14.346;2023-08-21T10:46:53;97849.59;;;30.90;47.74
82171;BME280;71755;48.038;14.346;2023-08-21T10:49:19;97852.22;;;31.09;47.62
82171;BME280;71755;48.038;14.346;2023-08-21T10:51:47;97846.19;;;31.27;46.79
82171;BME280;71755;48.038;14.346;2023-08-21T10:54:15;97855.00;;;31.36;45.56
82171;BME280;71755;48.038;14.346;2023-08-21T10:56:41;97848.59;;;31.28;46.37
82171;BME280;71755;48.038;14.346;2023-08-21T10:59:07;97845.72;;;31.51;45.60
82171;BME280;71755;48.038;14.346;2023-08-21T11:01:46;97850.06;;;31.82;44.43
82171;BME280;71755;48.038;14.346;2023-08-21T11:04:12;97842.50;;;31.76;46.21
82171;BME280;71755;48.038;14.346;2023-08-21T11:06:39;97836.88;;;32.02;45.52
82171;BME280;71755;48.038;14.346;2023-08-21T11:09:12;97846.06;;;31.76;44.44
82171;BME280;71755;48.038;14.346;2023-08-21T11:11:39;97843.94;;;31.66;45.41
82171;BME280;71755;48.038;14.346;2023-08-21T11:14:04;97843.34;;;31.80;43.56
82171;BME280;71755;48.038;14.346;2023-08-21T11:16:30;97835.19;;;31.94;43.19
82171;BME280;71755;48.038;14.346;2023-08-21T11:18:56;97844.97;;;31.54;44.76
82171;BME280;71755;48.038;14.346;2023-08-21T11:21:23;97834.34;;;31.56;42.12
82171;BME280;71755;48.038;14.346;2023-08-21T11:23:51;97835.84;;;31.80;44.12
82171;BME280;71755;48.038;14.346;2023-08-21T11:26:17;97821.75;;;31.92;42.97
82171;BME280;71755;48.038;14.346;2023-08-21T11:28:44;97824.28;;;32.05;44.17
82171;BME280;71755;48.038;14.346;2023-08-21T11:31:10;97824.69;;;32.44;44.68
82171;BME280;71755;48.038;14.346;2023-08-21T11:33:37;97822.84;;;32.21;44.04
82171;BME280;71755;48.038;14.346;2023-08-21T11:36:05;97820.66;;;32.34;42.37
82171;BME280;71755;48.038;14.346;2023-08-21T11:38:30;97823.88;;;32.43;42.53
82171;BME280;71755;48.038;14.346;2023-08-21T11:40:58;97825.63;;;32.65;43.22
82171;BME280;71755;48.038;14.346;2023-08-21T11:43:40;97818.63;;;32.75;42.97
82171;BME280;71755;48.038;14.346;2023-08-21T11:46:08;97833.50;;;32.60;42.78
82171;BME280;71755;48.038;14.346;2023-08-21T11:48:40;97815.53;;;32.84;42.26
82171;BME280;71755;48.038;14.346;2023-08-21T11:51:07;97819.72;;;33.18;42.55
82171;BME280;71755;48.038;14.346;2023-08-21T11:53:36;97818.41;;;33.02;42.05
82171;BME280;71755;48.038;14.346;2023-08-21T11:56:27;97814.88;;;33.05;42.33
82171;BME280;71755;48.038;14.346;2023-08-21T11:58:54;97812.16;;;33.12;42.11
82171;BME280;71755;48.038;14.346;2023-08-21T12:01:21;97816.19;;;33.25;40.63
82171;BME280;71755;48.038;14.346;2023-08-21T12:03:48;97809.38;;;33.08;40.96
82171;BME280;71755;48.038;14.346;2023-08-21T12:06:21;97812.94;;;33.09;41.21
82171;BME280;71755;48.038;14.346;2023-08-21T12:08:47;97810.22;;;33.23;39.99
82171;BME280;71755;48.038;14.346;2023-08-21T12:11:13;97807.97;;;33.39;39.66
82171;BME280;71755;48.038;14.346;2023-08-21T12:13:39;97806.69;;;33.30;41.64
82171;BME280;71755;48.038;14.346;2023-08-21T12:16:04;97802.44;;;33.43;40.73
82171;BME280;71755;48.038;14.346;2023-08-21T12:18:31;97802.94;;;33.77;40.17
82171;BME280;71755;48.038;14.346;2023-08-21T12:20:56;97797.81;;;33.79;40.35
82171;BME280;71755;48.038;14.346;2023-08-21T12:23:22;97795.41;;;33.74;40.85
82171;BME280;71755;48.038;14.346;2023-08-21T12:25:48;97802.16;;;33.76;40.61
82171;BME280;71755;48.038;14.346;2023-08-21T12:28:15;97793.94;;;34.01;41.34
82171;BME280;71755;48.038;14.346;2023-08-21T12:30:41;97791.22;;;34.30;39.88
82171;BME280;71755;48.038;14.346;2023-08-21T12:33:07;97790.03;;;34.45;38.99
82171;BME280;71755;48.038;14.346;2023-08-21T12:35:33;97790.03;;;34.52;37.32
82171;BME280;71755;48.038;14.346;2023-08-21T12:37:59;97792.81;;;34.52;39.13
82171;BME280;71755;48.038;14.346;2023-08-21T12:40:31;97785.69;;;34.51;38.93
82171;BME280;71755;48.038;14.346;2023-08-21T12:42:58;97786.88;;;34.57;36.85
82171;BME280;71755;48.038;14.346;2023-08-21T12:45:23;97789.25;;;34.48;38.03
82171;BME280;71755;48.038;14.346;2023-08-21T12:47:49;97786.09;;;34.60;36.46
82171;BME280;71755;48.038;14.346;2023-08-21T12:50:15;97783.72;;;34.34;37.52
82171;BME280;71755;48.038;14.346;2023-08-21T12:52:41;97776.97;;;34.35;35.82
82171;BME280;71755;48.038;14.346;2023-08-21T12:55:07;97776.56;;;34.47;35.61
82171;BME280;71755;48.038;14.346;2023-08-21T12:57:33;97772.22;;;34.46;35.78